createdAt,value
2023-02-25T00:01:08.410Z,95.07
2023-02-25T00:03:36.440Z,95.08
2023-02-25T00:06:03.648Z,94.79
2023-02-25T00:08:30.369Z,94.72
2023-02-25T00:11:01.461Z,94.80
2023-02-25T00:13:28.334Z,94.65
2023-02-25T00:15:58.091Z,94.64
2023-02-25T00:18:28.628Z,94.49
2023-02-25T00:20:55.060Z,95.04
2023-02-25T00:23:21.490Z,94.51
2023-02-25T00:25:48.355Z,93.78
2023-02-25T00:28:15.111Z,94.13
2023-02-25T00:30:45.265Z,93.54
2023-02-25T00:33:11.769Z,93.25
2023-02-25T00:35:41.293Z,92.13
2023-02-25T00:38:15.861Z,92.40
2023-02-25T00:40:43.059Z,92.36
2023-02-25T00:43:09.691Z,92.33
2023-02-25T00:45:39.391Z,92.04
2023-02-25T00:48:06.244Z,91.62
2023-02-25T00:50:33.025Z,91.91
2023-02-25T00:52:59.698Z,91.71
2023-02-25T00:55:33.636Z,92.14
2023-02-25T00:58:01.556Z,92.04
2023-02-25T01:00:29.149Z,91.69
2023-02-25T01:02:57.711Z,92.27
2023-02-25T01:05:24.885Z,92.32
2023-02-25T01:07:51.576Z,91.92
2023-02-25T01:10:19.197Z,92.12
2023-02-25T01:12:46.048Z,91.87
2023-02-25T01:15:14.562Z,92.12
2023-02-25T01:17:41.221Z,91.66
2023-02-25T01:20:12.414Z,91.76
2023-02-25T01:22:41.708Z,91.26
2023-02-25T01:25:12.162Z,91.43
2023-02-25T01:27:39.087Z,91.29
2023-02-25T01:30:06.873Z,91.24
2023-02-25T01:32:33.829Z,91.58
2023-02-25T01:35:00.383Z,91.46
2023-02-25T01:37:26.970Z,91.54
2023-02-25T01:39:53.768Z,91.62
2023-02-25T01:42:20.303Z,91.55
2023-02-25T01:45:11.597Z,91.35
2023-02-25T01:47:40.098Z,91.47
2023-02-25T01:50:07.477Z,91.42
2023-02-25T01:52:34.106Z,91.36
2023-02-25T01:55:00.626Z,91.60
2023-02-25T01:57:27.046Z,91.38
2023-02-25T01:59:55.111Z,91.78
2023-02-25T02:02:24.480Z,91.65
2023-02-25T02:04:53.034Z,91.93
2023-02-25T02:07:21.940Z,92.37
2023-02-25T02:09:57.587Z,92.45
2023-02-25T02:12:31.764Z,92.62
2023-02-25T02:15:00.699Z,93.06
2023-02-25T02:17:33.502Z,92.93
2023-02-25T02:20:13.021Z,93.42
2023-02-25T02:22:43.722Z,93.54
2023-02-25T02:25:16.156Z,93.55
2023-02-25T02:28:04.943Z,93.34
2023-02-25T02:30:40.558Z,93.37
2023-02-25T02:33:32.111Z,93.26
2023-02-25T02:36:08.309Z,93.41
2023-02-25T02:38:51.832Z,93.67
2023-02-25T02:41:33.674Z,93.52
2023-02-25T02:44:07.841Z,93.83
2023-02-25T02:46:39.102Z,93.41
2023-02-25T02:49:05.497Z,93.81
2023-02-25T02:51:38.496Z,93.80
2023-02-25T02:54:07.729Z,93.95
2023-02-25T02:56:37.471Z,93.46
2023-02-25T02:59:10.299Z,93.68
2023-02-25T03:01:51.391Z,93.39
2023-02-25T03:04:25.228Z,93.78
2023-02-25T03:06:57.629Z,93.24
2023-02-25T03:09:32.643Z,93.42
2023-02-25T03:11:59.144Z,93.31
2023-02-25T03:14:25.637Z,93.45
2023-02-25T03:17:02.270Z,93.28
2023-02-25T03:19:52.509Z,92.64
2023-02-25T03:22:31.845Z,92.41
2023-02-25T03:25:10.755Z,92.61
2023-02-25T03:27:39.665Z,92.66
2023-02-25T03:30:15.085Z,92.60
2023-02-25T03:32:47.166Z,92.29
2023-02-25T03:35:16.327Z,92.44
2023-02-25T03:37:46.246Z,92.53
2023-02-25T03:40:15.167Z,92.15
2023-02-25T03:42:50.465Z,91.58
2023-02-25T03:45:17.143Z,91.95
2023-02-25T03:47:43.983Z,91.87
2023-02-25T03:50:15.657Z,91.62
2023-02-25T03:52:42.428Z,91.93
2023-02-25T03:55:10.282Z,91.39
2023-02-25T03:57:42.136Z,91.60
2023-02-25T04:00:30.945Z,91.45
2023-02-25T04:02:57.977Z,91.69
2023-02-25T04:05:28.232Z,91.57
2023-02-25T04:07:56.307Z,91.40
2023-02-25T04:10:22.861Z,91.53
2023-02-25T04:12:52.655Z,91.43
2023-02-25T04:15:20.391Z,91.28
2023-02-25T04:17:47.200Z,91.33
2023-02-25T04:20:16.332Z,91.37
2023-02-25T04:22:43.301Z,91.37
2023-02-25T04:25:09.947Z,91.61
2023-02-25T04:27:36.438Z,91.58
2023-02-25T04:30:03.091Z,91.80
2023-02-25T04:32:29.717Z,92.01
2023-02-25T04:34:57.627Z,91.93
2023-02-25T04:37:24.049Z,91.97
2023-02-25T04:39:50.483Z,91.70
2023-02-25T04:42:16.906Z,92.06
2023-02-25T04:44:43.318Z,91.95
2023-02-25T04:47:09.775Z,92.02
2023-02-25T04:49:44.757Z,92.42
2023-02-25T04:52:13.168Z,92.24
2023-02-25T04:54:39.959Z,91.82
2023-02-25T04:57:07.527Z,91.82
2023-02-25T04:59:33.999Z,91.68
2023-02-25T05:02:01.028Z,91.90
2023-02-25T05:04:27.725Z,92.18
2023-02-25T05:06:54.226Z,91.72
2023-02-25T05:09:21.282Z,91.74
2023-02-25T05:11:47.846Z,91.66
2023-02-25T05:14:14.315Z,92.11
2023-02-25T05:16:40.825Z,91.87
2023-02-25T05:19:07.345Z,91.86
2023-02-25T05:21:33.801Z,91.82
2023-02-25T05:24:00.264Z,92.06
2023-02-25T05:26:26.840Z,91.88
2023-02-25T05:28:56.178Z,91.94
2023-02-25T05:31:24.710Z,91.99
2023-02-25T05:33:52.209Z,91.23
2023-02-25T05:36:18.737Z,91.37
2023-02-25T05:38:45.602Z,91.50
2023-02-25T05:41:13.293Z,91.81
2023-02-25T05:43:40.158Z,91.36
2023-02-25T05:46:11.731Z,91.89
2023-02-25T05:48:42.598Z,91.99
2023-02-25T05:51:12.880Z,91.57
2023-02-25T05:53:39.500Z,92.02
2023-02-25T05:56:07.990Z,91.46
2023-02-25T05:58:35.040Z,91.86
2023-02-25T06:01:11.440Z,92.04
2023-02-25T06:03:38.819Z,91.75
2023-02-25T06:06:06.305Z,91.82
2023-02-25T06:08:33.582Z,92.10
2023-02-25T06:11:01.788Z,92.01
2023-02-25T06:13:28.356Z,92.17
2023-02-25T06:15:54.843Z,92.08
2023-02-25T06:18:21.702Z,92.33
2023-02-25T06:20:48.144Z,92.21
2023-02-25T06:23:14.626Z,92.31
2023-02-25T06:25:41.078Z,92.12
2023-02-25T06:28:07.609Z,92.20
2023-02-25T06:30:34.118Z,92.15
2023-02-25T06:33:00.614Z,91.98
2023-02-25T06:35:27.133Z,92.09
2023-02-25T06:37:59.113Z,91.53
2023-02-25T06:40:26.818Z,91.59
2023-02-25T06:42:53.302Z,91.65
2023-02-25T06:45:19.955Z,91.26
2023-02-25T06:47:46.505Z,91.55
2023-02-25T06:50:13.450Z,91.31
2023-02-25T06:52:40.492Z,91.70
2023-02-25T06:55:07.571Z,91.62
2023-02-25T06:57:34.693Z,91.69
2023-02-25T07:00:01.575Z,91.53
2023-02-25T07:02:28.225Z,91.87
2023-02-25T07:04:54.978Z,92.06
2023-02-25T07:07:22.531Z,91.58
2023-02-25T07:09:49.026Z,91.49
2023-02-25T07:12:15.582Z,91.56
2023-02-25T07:14:42.068Z,91.33
2023-02-25T07:17:08.506Z,91.47
2023-02-25T07:19:35.348Z,91.34
2023-02-25T07:22:02.032Z,90.93
2023-02-25T07:24:28.595Z,90.51
2023-02-25T07:26:55.587Z,90.73
2023-02-25T07:29:22.820Z,90.69
2023-02-25T07:31:49.595Z,90.52
2023-02-25T07:34:16.183Z,89.83
2023-02-25T07:36:43.790Z,90.16
2023-02-25T07:39:12.131Z,89.85
2023-02-25T07:41:38.934Z,89.06
2023-02-25T07:44:06.576Z,89.14
2023-02-25T07:46:33.943Z,88.73
2023-02-25T07:49:00.449Z,88.65
2023-02-25T07:51:27.074Z,88.29
2023-02-25T07:53:55.596Z,88.60
2023-02-25T07:56:24.043Z,87.63
2023-02-25T07:58:50.792Z,87.08
2023-02-25T08:01:29.503Z,86.77
2023-02-25T08:03:58.842Z,86.44
2023-02-25T08:06:26.259Z,86.09
2023-02-25T08:08:54.561Z,86.35
2023-02-25T08:11:22.978Z,85.04
2023-02-25T08:13:49.934Z,85.00
2023-02-25T08:16:18.957Z,85.77
2023-02-25T08:18:46.941Z,84.75
2023-02-25T08:21:15.857Z,85.37
2023-02-25T08:23:42.305Z,85.47
2023-02-25T08:26:11.508Z,85.72
2023-02-25T08:28:38.012Z,86.06
2023-02-25T08:31:07.901Z,85.75
2023-02-25T08:33:34.459Z,85.39
2023-02-25T08:36:16.081Z,85.06
2023-02-25T08:38:42.883Z,85.97
2023-02-25T08:41:09.459Z,84.93
2023-02-25T08:43:37.074Z,85.39
2023-02-25T08:46:04.370Z,83.97
2023-02-25T08:48:30.804Z,84.22
2023-02-25T08:51:02.720Z,83.64
2023-02-25T08:53:29.153Z,83.21
2023-02-25T08:55:55.552Z,83.61
2023-02-25T08:58:22.039Z,84.15
2023-02-25T09:00:50.041Z,84.46
2023-02-25T09:03:16.853Z,84.49
2023-02-25T09:05:43.709Z,84.78
2023-02-25T09:08:10.214Z,84.79
2023-02-25T09:10:49.538Z,84.97
2023-02-25T09:13:17.253Z,85.26
2023-02-25T09:15:43.704Z,84.56
2023-02-25T09:18:11.649Z,84.89
2023-02-25T09:20:38.104Z,84.90
2023-02-25T09:23:04.556Z,83.80
2023-02-25T09:25:30.975Z,83.69
2023-02-25T09:27:57.384Z,84.12
2023-02-25T09:30:23.927Z,83.95
2023-02-25T09:32:50.530Z,83.78
2023-02-25T09:35:17.213Z,84.54
2023-02-25T09:37:43.747Z,83.60
2023-02-25T09:40:17.093Z,83.59
2023-02-25T09:42:53.538Z,83.80
2023-02-25T09:45:24.937Z,83.71
2023-02-25T09:47:58.711Z,83.39
2023-02-25T09:50:46.611Z,83.60
2023-02-25T09:53:26.015Z,83.57
2023-02-25T09:55:53.150Z,82.48
2023-02-25T09:58:41.479Z,83.01
2023-02-25T10:01:10.951Z,83.59
2023-02-25T10:03:58.574Z,82.92
2023-02-25T10:06:35.195Z,83.23
2023-02-25T10:09:09.584Z,83.09
2023-02-25T10:11:58.008Z,82.22
2023-02-25T10:14:51.691Z,82.15
2023-02-25T10:17:21.063Z,81.39
2023-02-25T10:20:18.789Z,80.03
2023-02-25T10:23:06.735Z,80.89
2023-02-25T10:25:39.196Z,81.63
2023-02-25T10:28:16.374Z,81.85
2023-02-25T10:31:06.764Z,83.47
2023-02-25T10:33:42.919Z,83.62
2023-02-25T10:36:14.946Z,84.07
2023-02-25T10:38:48.659Z,84.60
2023-02-25T10:41:16.257Z,85.78
2023-02-25T10:43:44.477Z,85.30
2023-02-25T10:46:23.259Z,85.03
2023-02-25T10:49:00.859Z,85.50
2023-02-25T10:51:29.635Z,86.15
2023-02-25T10:53:56.075Z,86.74
2023-02-25T10:56:25.651Z,86.89
2023-02-25T10:59:39.291Z,85.88
2023-02-25T11:02:21.220Z,85.50
2023-02-25T11:04:49.603Z,84.91
2023-02-25T11:07:30.477Z,85.04
2023-02-25T11:10:19.430Z,85.63
2023-02-25T11:12:53.058Z,86.21
2023-02-25T11:15:41.625Z,87.37
2023-02-25T11:18:21.892Z,87.77
2023-02-25T11:21:00.654Z,87.28
2023-02-25T11:23:45.719Z,87.98
2023-02-25T11:26:34.066Z,88.00
2023-02-25T11:29:05.069Z,88.72
2023-02-25T11:31:36.765Z,87.08
2023-02-25T11:34:12.616Z,86.57
2023-02-25T11:36:39.960Z,86.55
2023-02-25T11:39:27.887Z,86.74
2023-02-25T11:41:57.719Z,83.58
2023-02-25T11:44:31.785Z,84.40
2023-02-25T11:46:58.155Z,84.54
2023-02-25T11:49:51.364Z,79.59
2023-02-25T11:52:44.265Z,79.34
2023-02-25T11:55:51.441Z,79.47
2023-02-25T11:58:44.590Z,79.51
2023-02-25T12:01:13.919Z,79.75
2023-02-25T12:04:34.697Z,77.34
2023-02-25T12:07:15.241Z,76.68
2023-02-25T12:09:56.772Z,71.79
2023-02-25T12:12:41.310Z,71.12
2023-02-25T12:15:23.649Z,67.06
2023-02-25T12:18:23.392Z,67.18
2023-02-25T12:21:12.852Z,66.06
2023-02-25T12:24:17.288Z,63.89
2023-02-25T12:26:52.822Z,63.38
2023-02-25T12:29:43.594Z,64.44
2023-02-25T12:32:43.734Z,60.69
2023-02-25T12:35:39.738Z,61.16
2023-02-25T12:38:29.401Z,62.20
2023-02-25T12:41:07.838Z,64.32
2023-02-25T12:44:13.383Z,63.95
2023-02-25T12:46:59.032Z,63.03
2023-02-25T12:50:22.696Z,62.97
2023-02-25T12:52:58.095Z,62.25
2023-02-25T12:55:44.101Z,60.69
2023-02-25T12:58:26.857Z,63.36
2023-02-25T13:00:53.306Z,64.12
2023-02-25T13:03:54.373Z,58.53
2023-02-25T13:06:53.197Z,56.83
2023-02-25T13:09:37.899Z,58.21
2023-02-25T13:12:29.808Z,60.14
2023-02-25T13:15:20.641Z,56.40
2023-02-25T13:18:11.533Z,58.13
2023-02-25T13:21:01.242Z,59.13
2023-02-25T13:23:56.446Z,59.01
2023-02-25T13:26:47.370Z,59.79
2023-02-25T13:29:25.727Z,59.82
2023-02-25T13:32:08.671Z,57.58
2023-02-25T13:34:48.083Z,57.64
2023-02-25T13:37:23.766Z,59.71
2023-02-25T13:40:02.596Z,58.20
2023-02-25T13:42:46.091Z,55.95
2023-02-25T13:45:51.141Z,53.89
2023-02-25T13:48:35.461Z,52.42
2023-02-25T13:51:14.018Z,54.58
2023-02-25T13:53:53.234Z,54.39
2023-02-25T13:56:34.858Z,54.07
2023-02-25T13:59:16.660Z,53.24
2023-02-25T14:01:46.041Z,54.29
2023-02-25T14:04:35.022Z,49.82
2023-02-25T14:07:10.405Z,49.65
2023-02-25T14:09:53.395Z,48.37
2023-02-25T14:12:57.577Z,48.82
2023-02-25T14:15:52.129Z,48.84
2023-02-25T14:18:47.484Z,48.34
2023-02-25T14:21:39.934Z,47.63
2023-02-25T14:24:16.675Z,46.94
2023-02-25T14:26:49.554Z,46.71
2023-02-25T14:29:42.826Z,45.07
2023-02-25T14:32:24.511Z,44.57
2023-02-25T14:35:24.732Z,45.50
2023-02-25T14:38:17.930Z,45.34
2023-02-25T14:41:08.946Z,43.41
2023-02-25T14:43:36.628Z,45.45
2023-02-25T14:46:15.430Z,46.18
2023-02-25T14:48:46.453Z,45.36
2023-02-25T14:51:36.083Z,45.56
2023-02-25T14:54:34.874Z,42.91
2023-02-25T14:57:32.534Z,44.27
2023-02-25T15:00:23.462Z,43.09
2023-02-25T15:03:17.688Z,42.69
2023-02-25T15:05:54.509Z,44.69
2023-02-25T15:08:33.132Z,43.10
2023-02-25T15:11:05.692Z,44.25
2023-02-25T15:14:06.245Z,44.16
2023-02-25T15:17:00.689Z,43.89
2023-02-25T15:19:37.941Z,42.57
2023-02-25T15:22:29.460Z,42.19
2023-02-25T15:25:37.848Z,40.22
2023-02-25T15:28:30.097Z,41.05
2023-02-25T15:31:00.315Z,42.32
2023-02-25T15:33:37.418Z,41.65
2023-02-25T15:36:16.354Z,42.15
2023-02-25T15:38:56.495Z,43.15
2023-02-25T15:41:29.106Z,43.28
2023-02-25T15:44:01.047Z,45.08
2023-02-25T15:46:33.534Z,46.03
2023-02-25T15:49:30.297Z,45.90
2023-02-25T15:52:00.828Z,46.92
2023-02-25T15:54:27.668Z,48.96
2023-02-25T15:56:55.863Z,47.91
2023-02-25T15:59:43.809Z,47.51
2023-02-25T16:02:35.137Z,48.85
2023-02-25T16:05:17.350Z,49.79
2023-02-25T16:07:47.275Z,50.44
2023-02-25T16:10:32.521Z,50.33
2023-02-25T16:13:00.955Z,51.66
2023-02-25T16:15:42.046Z,50.49
2023-02-25T16:18:15.128Z,51.19
2023-02-25T16:20:48.268Z,50.85
2023-02-25T16:23:15.840Z,52.81
2023-02-25T16:26:10.239Z,50.84
2023-02-25T16:28:55.863Z,50.50
2023-02-25T16:31:33.269Z,52.38
2023-02-25T16:34:09.775Z,52.75
2023-02-25T16:36:45.363Z,49.07
2023-02-25T16:39:18.350Z,50.29
2023-02-25T16:41:45.004Z,50.70
2023-02-25T16:44:20.411Z,48.85
2023-02-25T16:46:51.420Z,50.40
2023-02-25T16:49:28.569Z,50.98
2023-02-25T16:51:55.174Z,52.70
2023-02-25T16:54:33.223Z,51.61
2023-02-25T16:57:02.909Z,52.61
2023-02-25T16:59:34.353Z,52.15
2023-02-25T17:02:22.401Z,53.44
2023-02-25T17:04:51.452Z,54.01
2023-02-25T17:07:20.004Z,52.65
2023-02-25T17:09:53.764Z,52.10
2023-02-25T17:12:36.782Z,52.62
2023-02-25T17:15:12.955Z,52.29
2023-02-25T17:17:41.167Z,53.63
2023-02-25T17:20:15.377Z,52.59
2023-02-25T17:22:44.134Z,53.23
2023-02-25T17:25:17.758Z,54.15
2023-02-25T17:27:47.421Z,53.47
2023-02-25T17:30:33.243Z,52.58
2023-02-25T17:32:59.922Z,53.73
2023-02-25T17:35:27.860Z,55.18
2023-02-25T17:37:56.082Z,52.88
2023-02-25T17:40:26.872Z,53.12
2023-02-25T17:43:26.089Z,52.07
2023-02-25T17:46:13.956Z,52.38
2023-02-25T17:48:43.345Z,52.89
2023-02-25T17:51:10.601Z,53.04
2023-02-25T17:54:09.703Z,53.86
2023-02-25T17:56:36.680Z,54.25
2023-02-25T17:59:28.027Z,53.80
2023-02-25T18:01:56.521Z,54.62
2023-02-25T18:04:36.755Z,55.46
2023-02-25T18:07:29.824Z,55.73
2023-02-25T18:09:57.349Z,56.73
2023-02-25T18:12:27.846Z,56.89
2023-02-25T18:14:58.481Z,57.48
2023-02-25T18:17:35.746Z,57.50
2023-02-25T18:20:06.719Z,57.88
2023-02-25T18:22:33.060Z,57.17
2023-02-25T18:25:02.568Z,58.04
2023-02-25T18:27:33.674Z,57.38
2023-02-25T18:30:18.052Z,56.59
2023-02-25T18:32:45.787Z,56.73
2023-02-25T18:35:12.207Z,56.78
2023-02-25T18:37:39.252Z,57.18
2023-02-25T18:40:07.071Z,56.43
2023-02-25T18:42:33.562Z,57.20
2023-02-25T18:45:00.021Z,57.07
2023-02-25T18:47:29.612Z,56.47
2023-02-25T18:49:56.046Z,57.73
2023-02-25T18:52:25.160Z,57.57
2023-02-25T18:54:51.592Z,57.19
2023-02-25T18:57:22.357Z,58.26
2023-02-25T18:59:49.108Z,57.57
2023-02-25T19:02:23.120Z,57.51
2023-02-25T19:04:49.648Z,57.99
2023-02-25T19:07:16.109Z,58.74
2023-02-25T19:09:42.563Z,58.56
2023-02-25T19:12:13.691Z,59.07
2023-02-25T19:14:41.735Z,58.92
2023-02-25T19:17:16.129Z,58.81
2023-02-25T19:19:46.407Z,59.12
2023-02-25T19:22:15.287Z,60.17
2023-02-25T19:24:47.907Z,60.46
2023-02-25T19:27:23.181Z,59.85
2023-02-25T19:29:51.869Z,60.10
2023-02-25T19:32:19.710Z,60.84
2023-02-25T19:34:47.663Z,60.89
2023-02-25T19:37:16.162Z,61.29
2023-02-25T19:39:43.116Z,61.94
2023-02-25T19:42:10.619Z,61.28
2023-02-25T19:44:37.146Z,61.57
2023-02-25T19:47:04.516Z,61.63
2023-02-25T19:49:31.086Z,61.96
2023-02-25T19:51:57.570Z,61.95
2023-02-25T19:54:26.131Z,62.01
2023-02-25T19:56:52.632Z,62.61
2023-02-25T19:59:19.108Z,63.08
2023-02-25T20:01:47.063Z,62.76
2023-02-25T20:04:13.500Z,63.13
2023-02-25T20:06:39.934Z,63.31
2023-02-25T20:09:08.997Z,63.74
2023-02-25T20:11:35.779Z,63.61
2023-02-25T20:14:03.962Z,64.17
2023-02-25T20:16:31.909Z,64.13
2023-02-25T20:18:58.480Z,64.26
2023-02-25T20:21:26.422Z,64.31
2023-02-25T20:23:53.274Z,64.12
2023-02-25T20:26:23.004Z,64.93
2023-02-25T20:28:53.979Z,64.42
2023-02-25T20:31:21.505Z,64.57
2023-02-25T20:33:50.156Z,64.78
2023-02-25T20:36:31.255Z,65.07
2023-02-25T20:39:21.699Z,65.16
2023-02-25T20:41:48.373Z,65.31
2023-02-25T20:44:16.574Z,65.11
2023-02-25T20:46:43.681Z,65.97
2023-02-25T20:49:15.941Z,65.52
2023-02-25T20:51:44.770Z,65.42
2023-02-25T20:54:12.189Z,66.31
2023-02-25T20:56:39.947Z,66.00
2023-02-25T20:59:06.760Z,66.03
2023-02-25T21:01:33.439Z,66.09
2023-02-25T21:04:00.152Z,66.40
2023-02-25T21:06:27.548Z,66.02
2023-02-25T21:08:54.850Z,66.61
2023-02-25T21:11:23.947Z,67.03
2023-02-25T21:13:51.572Z,66.66
2023-02-25T21:16:19.652Z,66.83
2023-02-25T21:18:47.326Z,67.02
2023-02-25T21:21:16.207Z,66.85
2023-02-25T21:23:43.410Z,67.08
2023-02-25T21:26:11.757Z,67.14
2023-02-25T21:28:40.910Z,67.58
2023-02-25T21:31:10.862Z,67.66
2023-02-25T21:33:38.891Z,67.33
2023-02-25T21:36:07.217Z,67.85
2023-02-25T21:38:34.189Z,68.43
2023-02-25T21:41:06.914Z,68.96
2023-02-25T21:43:33.641Z,69.01
2023-02-25T21:46:02.663Z,69.43
2023-02-25T21:48:31.276Z,69.86
2023-02-25T21:50:58.559Z,69.55
2023-02-25T21:53:27.494Z,69.72
2023-02-25T21:55:55.469Z,70.58
2023-02-25T21:58:22.830Z,70.38
2023-02-25T22:00:50.079Z,70.75
2023-02-25T22:03:17.089Z,71.43
2023-02-25T22:05:45.858Z,71.09
2023-02-25T22:08:12.998Z,70.81
2023-02-25T22:10:40.780Z,70.96
2023-02-25T22:13:08.448Z,71.30
2023-02-25T22:15:35.482Z,71.66
2023-02-25T22:18:02.221Z,72.02
2023-02-25T22:20:28.729Z,71.67
2023-02-25T22:22:57.752Z,71.44
2023-02-25T22:25:24.253Z,71.49
2023-02-25T22:27:52.059Z,71.74
2023-02-25T22:30:19.270Z,71.85
2023-02-25T22:32:45.757Z,72.86
2023-02-25T22:35:12.305Z,72.83
2023-02-25T22:37:38.822Z,72.37
2023-02-25T22:40:06.029Z,72.59
2023-02-25T22:42:32.465Z,73.47
2023-02-25T22:44:58.900Z,72.97
2023-02-25T22:47:25.522Z,72.65
2023-02-25T22:49:52.007Z,73.35
2023-02-25T22:52:18.466Z,73.63
2023-02-25T22:54:46.052Z,73.17
2023-02-25T22:57:12.535Z,73.46
2023-02-25T22:59:38.972Z,73.49
2023-02-25T23:02:05.444Z,73.41
2023-02-25T23:04:32.784Z,74.51
2023-02-25T23:07:00.926Z,73.55
2023-02-25T23:09:27.532Z,74.03
2023-02-25T23:11:54.615Z,74.51
2023-02-25T23:14:21.096Z,74.70
2023-02-25T23:16:47.712Z,74.35
2023-02-25T23:19:19.675Z,74.55
2023-02-25T23:21:46.180Z,74.98
2023-02-25T23:24:19.005Z,74.82
2023-02-25T23:26:47.616Z,75.50
2023-02-25T23:29:14.456Z,75.05
2023-02-25T23:31:46.909Z,75.33
2023-02-25T23:34:20.185Z,74.90
2023-02-25T23:36:47.296Z,75.41
2023-02-25T23:39:15.415Z,77.40
2023-02-25T23:41:42.299Z,76.26
2023-02-25T23:44:09.566Z,75.63
2023-02-25T23:46:37.294Z,74.92
2023-02-25T23:49:06.571Z,75.54
2023-02-25T23:51:33.875Z,75.64
2023-02-25T23:54:03.237Z,75.48
2023-02-25T23:56:31.165Z,75.64
2023-02-25T23:58:57.710Z,75.29
